Weather at Cheyenne Regional Jerry Olson Field

Public forecast

Using degrees Fahrenheit for public forecast. Weather courtesy of forecast.io.

Current aviation weather report (METAR) for Cheyenne Regional Jerry Olson Field

Retrieved 2021/03/08 16:53 UTC (9 minutes ago):

KCYS 081653Z 00000KT 10SM CLR 08/M06 A3005 RMK AO2 SLP148 T00781061

Aviation forecast (TAF) for Cheyenne Regional Jerry Olson Field

Forecast is more than 6 hours old.

Retrieved 2021/03/08 06:22 UTC (11 hours ago):

TAF KCYS 080520Z 0806/0906 VRB04KT P6SM SKC FM082100 25015G25KT P6SM BKN250 FM090100 25010KT P6SM SKC